sensor_id;sensor_type;location;lat;lon;timestamp;temperature;humidity
7002;DHT22;3541;53.230;10.518;2024-01-16T00:02:01;0.60;99.90
7002;DHT22;3541;53.230;10.518;2024-01-16T00:04:27;0.60;99.90
7002;DHT22;3541;53.230;10.518;2024-01-16T00:06:56;0.60;99.90
7002;DHT22;3541;53.230;10.518;2024-01-16T00:09:23;0.60;99.90
7002;DHT22;3541;53.230;10.518;2024-01-16T00:11:49;0.60;99.90
7002;DHT22;3541;53.230;10.518;2024-01-16T00:14:17;0.60;99.90
7002;DHT22;3541;53.230;10.518;2024-01-16T00:16:44;0.50;99.90
7002;DHT22;3541;53.230;10.518;2024-01-16T00:19:11;0.50;99.90
7002;DHT22;3541;53.230;10.518;2024-01-16T00:21:41;0.50;99.90
7002;DHT22;3541;53.230;10.518;2024-01-16T00:24:09;0.50;99.90
7002;DHT22;3541;53.230;10.518;2024-01-16T00:26:35;0.50;99.90
7002;DHT22;3541;53.230;10.518;2024-01-16T00:29:02;0.60;99.90
7002;DHT22;3541;53.230;10.518;2024-01-16T00:31:29;0.50;99.90
7002;DHT22;3541;53.230;10.518;2024-01-16T00:33:54;0.50;99.90
7002;DHT22;3541;53.230;10.518;2024-01-16T00:36:21;0.50;99.90
7002;DHT22;3541;53.230;10.518;2024-01-16T00:38:48;0.60;99.90
7002;DHT22;3541;53.230;10.518;2024-01-16T00:41:15;0.60;99.90
7002;DHT22;3541;53.230;10.518;2024-01-16T00:43:44;0.60;99.90
7002;DHT22;3541;53.230;10.518;2024-01-16T00:46:11;0.50;99.90
7002;DHT22;3541;53.230;10.518;2024-01-16T00:48:38;0.60;99.90
7002;DHT22;3541;53.230;10.518;2024-01-16T00:51:05;0.60;99.90
7002;DHT22;3541;53.230;10.518;2024-01-16T00:53:31;0.60;99.90
7002;DHT22;3541;53.230;10.518;2024-01-16T00:55:58;0.50;99.90
7002;DHT22;3541;53.230;10.518;2024-01-16T00:58:25;0.50;99.90
7002;DHT22;3541;53.230;10.518;2024-01-16T01:00:52;0.40;99.90
7002;DHT22;3541;53.230;10.518;2024-01-16T01:03:19;0.50;99.90
7002;DHT22;3541;53.230;10.518;2024-01-16T01:05:45;0.50;99.90
7002;DHT22;3541;53.230;10.518;2024-01-16T01:08:12;0.50;99.90
7002;DHT22;3541;53.230;10.518;2024-01-16T01:10:38;0.50;99.90
7002;DHT22;3541;53.230;10.518;2024-01-16T01:13:05;0.50;99.90
7002;DHT22;3541;53.230;10.518;2024-01-16T01:15:33;0.50;99.90
7002;DHT22;3541;53.230;10.518;2024-01-16T01:17:59;0.50;99.90
7002;DHT22;3541;53.230;10.518;2024-01-16T01:20:26;0.50;99.90
7002;DHT22;3541;53.230;10.518;2024-01-16T01:22:52;0.50;99.90
7002;DHT22;3541;53.230;10.518;2024-01-16T01:25:19;0.50;99.90
7002;DHT22;3541;53.230;10.518;2024-01-16T01:27:45;0.50;99.90
7002;DHT22;3541;53.230;10.518;2024-01-16T01:30:13;0.50;99.90
7002;DHT22;3541;53.230;10.518;2024-01-16T01:32:40;0.40;99.90
7002;DHT22;3541;53.230;10.518;2024-01-16T01:35:09;0.40;99.90
7002;DHT22;3541;53.230;10.518;2024-01-16T01:37:36;0.50;99.90
7002;DHT22;3541;53.230;10.518;2024-01-16T01:40:04;0.40;99.90
7002;DHT22;3541;53.230;10.518;2024-01-16T01:42:31;0.50;99.90
7002;DHT22;3541;53.230;10.518;2024-01-16T01:44:57;0.50;99.90
7002;DHT22;3541;53.230;10.518;2024-01-16T01:47:24;0.50;99.90
7002;DHT22;3541;53.230;10.518;2024-01-16T01:49:52;0.40;99.90
7002;DHT22;3541;53.230;10.518;2024-01-16T01:52:19;0.50;99.90
7002;DHT22;3541;53.230;10.518;2024-01-16T01:54:46;0.50;99.90
7002;DHT22;3541;53.230;10.518;2024-01-16T01:57:13;0.40;99.90
7002;DHT22;3541;53.230;10.518;2024-01-16T01:59:39;0.50;99.90
7002;DHT22;3541;53.230;10.518;2024-01-16T02:02:06;0.50;99.90
7002;DHT22;3541;53.230;10.518;2024-01-16T02:04:34;0.50;99.90
7002;DHT22;3541;53.230;10.518;2024-01-16T02:07:04;0.50;99.90
7002;DHT22;3541;53.230;10.518;2024-01-16T02:09:31;0.50;99.90
7002;DHT22;3541;53.230;10.518;2024-01-16T02:11:58;0.50;99.90
7002;DHT22;3541;53.230;10.518;2024-01-16T02:14:24;0.50;99.90
7002;DHT22;3541;53.230;10.518;2024-01-16T02:16:51;0.50;99.90
7002;DHT22;3541;53.230;10.518;2024-01-16T02:19:17;0.50;99.90
7002;DHT22;3541;53.230;10.518;2024-01-16T02:21:47;0.50;99.90
7002;DHT22;3541;53.230;10.518;2024-01-16T02:24:17;0.40;99.90
7002;DHT22;3541;53.230;10.518;2024-01-16T02:26:44;0.40;99.90
7002;DHT22;3541;53.230;10.518;2024-01-16T02:29:11;0.40;99.90
7002;DHT22;3541;53.230;10.518;2024-01-16T02:31:37;0.40;99.90
7002;DHT22;3541;53.230;10.518;2024-01-16T02:34:04;0.40;99.90
7002;DHT22;3541;53.230;10.518;2024-01-16T02:36:31;0.40;99.90
7002;DHT22;3541;53.230;10.518;2024-01-16T02:38:58;0.40;99.90
7002;DHT22;3541;53.230;10.518;2024-01-16T02:41:26;0.40;99.90
7002;DHT22;3541;53.230;10.518;2024-01-16T02:43:53;0.40;99.90
7002;DHT22;3541;53.230;10.518;2024-01-16T02:46:19;0.40;99.90
7002;DHT22;3541;53.230;10.518;2024-01-16T02:48:46;0.30;99.90
7002;DHT22;3541;53.230;10.518;2024-01-16T02:51:12;0.40;99.90
7002;DHT22;3541;53.230;10.518;2024-01-16T02:53:39;0.40;99.90
7002;DHT22;3541;53.230;10.518;2024-01-16T02:56:06;0.30;99.90
7002;DHT22;3541;53.230;10.518;2024-01-16T02:58:35;0.40;99.90
7002;DHT22;3541;53.230;10.518;2024-01-16T03:01:02;0.40;99.90
7002;DHT22;3541;53.230;10.518;2024-01-16T03:03:28;0.30;99.90
7002;DHT22;3541;53.230;10.518;2024-01-16T03:05:55;0.30;99.90
7002;DHT22;3541;53.230;10.518;2024-01-16T03:08:22;0.20;99.90
7002;DHT22;3541;53.230;10.518;2024-01-16T03:10:48;0.10;99.90
7002;DHT22;3541;53.230;10.518;2024-01-16T03:13:15;0.00;99.90
7002;DHT22;3541;53.230;10.518;2024-01-16T03:15:43;0.00;99.90
7002;DHT22;3541;53.230;10.518;2024-01-16T03:18:11;-0.10;99.90
7002;DHT22;3541;53.230;10.518;2024-01-16T03:20:37;0.00;99.90
7002;DHT22;3541;53.230;10.518;2024-01-16T03:23:04;0.00;99.90
7002;DHT22;3541;53.230;10.518;2024-01-16T03:25:31;0.10;99.90
7002;DHT22;3541;53.230;10.518;2024-01-16T03:28:02;0.10;99.90
7002;DHT22;3541;53.230;10.518;2024-01-16T03:30:29;0.00;99.90
7002;DHT22;3541;53.230;10.518;2024-01-16T03:32:57;0.00;99.90
7002;DHT22;3541;53.230;10.518;2024-01-16T03:35:24;0.00;99.90
7002;DHT22;3541;53.230;10.518;2024-01-16T03:37:50;0.00;99.90
7002;DHT22;3541;53.230;10.518;2024-01-16T03:40:17;0.10;99.90
7002;DHT22;3541;53.230;10.518;2024-01-16T03:42:44;0.00;99.90
7002;DHT22;3541;53.230;10.518;2024-01-16T03:45:10;-0.10;99.90
7002;DHT22;3541;53.230;10.518;2024-01-16T03:47:37;-0.10;99.90
7002;DHT22;3541;53.230;10.518;2024-01-16T03:50:05;-0.10;99.90
7002;DHT22;3541;53.230;10.518;2024-01-16T03:52:32;-0.10;99.90
7002;DHT22;3541;53.230;10.518;2024-01-16T03:54:59;-0.10;99.90
7002;DHT22;3541;53.230;10.518;2024-01-16T03:57:25;0.00;99.90
7002;DHT22;3541;53.230;10.518;2024-01-16T03:59:52;-0.10;99.90
7002;DHT22;3541;53.230;10.518;2024-01-16T04:02:18;-0.10;99.90
7002;DHT22;3541;53.230;10.518;2024-01-16T04:04:45;-0.10;99.90
7002;DHT22;3541;53.230;10.518;2024-01-16T04:07:13;0.00;99.90
7002;DHT22;3541;53.230;10.518;2024-01-16T04:09:39;0.00;99.90
7002;DHT22;3541;53.230;10.518;2024-01-16T04:12:06;0.00;99.90
7002;DHT22;3541;53.230;10.518;2024-01-16T04:14:33;0.00;99.90
7002;DHT22;3541;53.230;10.518;2024-01-16T04:17:01;0.00;99.90
7002;DHT22;3541;53.230;10.518;2024-01-16T04:19:27;0.00;99.90
7002;DHT22;3541;53.230;10.518;2024-01-16T04:21:54;0.00;99.90
7002;DHT22;3541;53.230;10.518;2024-01-16T04:24:22;0.00;99.90
7002;DHT22;3541;53.230;10.518;2024-01-16T04:26:48;0.00;99.90
7002;DHT22;3541;53.230;10.518;2024-01-16T04:29:15;0.00;99.90
7002;DHT22;3541;53.230;10.518;2024-01-16T04:31:42;0.00;99.90
7002;DHT22;3541;53.230;10.518;2024-01-16T04:34:09;-0.10;99.90
7002;DHT22;3541;53.230;10.518;2024-01-16T04:36:35;0.00;99.90
7002;DHT22;3541;53.230;10.518;2024-01-16T04:39:02;0.00;99.90
7002;DHT22;3541;53.230;10.518;2024-01-16T04:41:30;0.00;99.90
7002;DHT22;3541;53.230;10.518;2024-01-16T04:43:57;0.00;99.90
7002;DHT22;3541;53.230;10.518;2024-01-16T04:46:23;0.00;99.90
7002;DHT22;3541;53.230;10.518;2024-01-16T04:48:50;0.00;99.90
7002;DHT22;3541;53.230;10.518;2024-01-16T04:51:17;0.00;99.90
7002;DHT22;3541;53.230;10.518;2024-01-16T04:53:43;0.00;99.90
7002;DHT22;3541;53.230;10.518;2024-01-16T04:56:10;0.10;99.90
7002;DHT22;3541;53.230;10.518;2024-01-16T04:58:38;-0.10;99.90
7002;DHT22;3541;53.230;10.518;2024-01-16T05:01:04;0.00;99.90
7002;DHT22;3541;53.230;10.518;2024-01-16T05:03:31;0.00;99.90
7002;DHT22;3541;53.230;10.518;2024-01-16T05:05:57;0.00;99.90
7002;DHT22;3541;53.230;10.518;2024-01-16T05:08:24;0.10;99.90
7002;DHT22;3541;53.230;10.518;2024-01-16T05:10:51;0.00;99.90
7002;DHT22;3541;53.230;10.518;2024-01-16T05:13:17;0.10;99.90
7002;DHT22;3541;53.230;10.518;2024-01-16T05:15:45;0.00;99.90
7002;DHT22;3541;53.230;10.518;2024-01-16T05:18:12;0.00;99.90
7002;DHT22;3541;53.230;10.518;2024-01-16T05:20:39;0.00;99.90
7002;DHT22;3541;53.230;10.518;2024-01-16T05:23:06;0.10;99.90
7002;DHT22;3541;53.230;10.518;2024-01-16T05:25:32;0.10;99.90
7002;DHT22;3541;53.230;10.518;2024-01-16T05:27:59;0.00;99.90
7002;DHT22;3541;53.230;10.518;2024-01-16T05:30:26;0.00;99.90
7002;DHT22;3541;53.230;10.518;2024-01-16T05:32:54;0.00;99.90
7002;DHT22;3541;53.230;10.518;2024-01-16T05:35:20;0.00;99.90
7002;DHT22;3541;53.230;10.518;2024-01-16T05:37:47;0.00;99.90
7002;DHT22;3541;53.230;10.518;2024-01-16T05:40:14;0.00;99.90
7002;DHT22;3541;53.230;10.518;2024-01-16T05:42:40;0.00;99.90
7002;DHT22;3541;53.230;10.518;2024-01-16T05:45:08;0.00;99.90
7002;DHT22;3541;53.230;10.518;2024-01-16T05:47:35;0.00;99.90
7002;DHT22;3541;53.230;10.518;2024-01-16T05:50:03;0.00;99.90
7002;DHT22;3541;53.230;10.518;2024-01-16T05:52:30;0.00;99.90
7002;DHT22;3541;53.230;10.518;2024-01-16T05:54:57;0.00;99.90
7002;DHT22;3541;53.230;10.518;2024-01-16T05:57:25;0.00;99.90
7002;DHT22;3541;53.230;10.518;2024-01-16T05:59:51;0.00;99.90
7002;DHT22;3541;53.230;10.518;2024-01-16T06:02:19;0.00;99.90
7002;DHT22;3541;53.230;10.518;2024-01-16T06:04:45;0.00;99.90
7002;DHT22;3541;53.230;10.518;2024-01-16T06:07:13;-0.10;99.90
7002;DHT22;3541;53.230;10.518;2024-01-16T06:09:40;0.00;99.90
7002;DHT22;3541;53.230;10.518;2024-01-16T06:12:08;0.00;99.90
7002;DHT22;3541;53.230;10.518;2024-01-16T06:14:34;0.00;99.90
7002;DHT22;3541;53.230;10.518;2024-01-16T06:17:01;0.00;99.90
7002;DHT22;3541;53.230;10.518;2024-01-16T06:19:28;-0.10;99.90
7002;DHT22;3541;53.230;10.518;2024-01-16T06:21:55;0.00;99.90
7002;DHT22;3541;53.230;10.518;2024-01-16T06:24:23;-0.10;99.90
7002;DHT22;3541;53.230;10.518;2024-01-16T06:26:49;-0.10;99.90
7002;DHT22;3541;53.230;10.518;2024-01-16T06:29:16;-0.10;99.90
7002;DHT22;3541;53.230;10.518;2024-01-16T06:31:42;-0.10;99.90
7002;DHT22;3541;53.230;10.518;2024-01-16T06:34:09;-0.10;99.90
7002;DHT22;3541;53.230;10.518;2024-01-16T06:36:35;-0.20;99.90
7002;DHT22;3541;53.230;10.518;2024-01-16T06:39:02;-0.10;99.90
7002;DHT22;3541;53.230;10.518;2024-01-16T06:41:30;-0.10;99.90
7002;DHT22;3541;53.230;10.518;2024-01-16T06:43:57;-0.10;99.90
7002;DHT22;3541;53.230;10.518;2024-01-16T06:46:23;-0.10;99.90
7002;DHT22;3541;53.230;10.518;2024-01-16T06:48:50;-0.10;99.90
7002;DHT22;3541;53.230;10.518;2024-01-16T06:51:17;0.00;99.90
7002;DHT22;3541;53.230;10.518;2024-01-16T06:53:44;0.00;99.90
7002;DHT22;3541;53.230;10.518;2024-01-16T06:56:10;0.00;99.90
7002;DHT22;3541;53.230;10.518;2024-01-16T06:58:38;0.10;99.90
7002;DHT22;3541;53.230;10.518;2024-01-16T07:01:05;0.00;99.90
7002;DHT22;3541;53.230;10.518;2024-01-16T07:03:33;0.10;99.90
7002;DHT22;3541;53.230;10.518;2024-01-16T07:05:59;0.00;99.90
7002;DHT22;3541;53.230;10.518;2024-01-16T07:08:26;0.00;99.90
7002;DHT22;3541;53.230;10.518;2024-01-16T07:10:53;0.00;99.90
7002;DHT22;3541;53.230;10.518;2024-01-16T07:13:19;0.10;99.90
7002;DHT22;3541;53.230;10.518;2024-01-16T07:15:47;0.10;99.90
7002;DHT22;3541;53.230;10.518;2024-01-16T07:18:14;0.00;99.90
7002;DHT22;3541;53.230;10.518;2024-01-16T07:20:41;0.10;99.90
7002;DHT22;3541;53.230;10.518;2024-01-16T07:23:07;0.00;99.90
7002;DHT22;3541;53.230;10.518;2024-01-16T07:25:34;0.00;99.90
7002;DHT22;3541;53.230;10.518;2024-01-16T07:28:00;0.00;99.90
7002;DHT22;3541;53.230;10.518;2024-01-16T07:30:27;0.00;99.90
7002;DHT22;3541;53.230;10.518;2024-01-16T07:32:55;0.00;99.90
7002;DHT22;3541;53.230;10.518;2024-01-16T07:35:21;0.00;99.90
7002;DHT22;3541;53.230;10.518;2024-01-16T07:37:48;0.00;99.90
7002;DHT22;3541;53.230;10.518;2024-01-16T07:40:14;0.00;99.90
7002;DHT22;3541;53.230;10.518;2024-01-16T07:42:42;-0.10;99.90
7002;DHT22;3541;53.230;10.518;2024-01-16T07:45:09;0.00;99.90
7002;DHT22;3541;53.230;10.518;2024-01-16T07:47:36;0.00;99.90
7002;DHT22;3541;53.230;10.518;2024-01-16T07:50:05;0.00;99.90
7002;DHT22;3541;53.230;10.518;2024-01-16T07:52:32;0.10;99.90
7002;DHT22;3541;53.230;10.518;2024-01-16T07:54:58;0.10;99.90
7002;DHT22;3541;53.230;10.518;2024-01-16T07:57:25;0.00;99.90
7002;DHT22;3541;53.230;10.518;2024-01-16T07:59:51;0.00;99.90
7002;DHT22;3541;53.230;10.518;2024-01-16T08:02:18;0.00;99.90
7002;DHT22;3541;53.230;10.518;2024-01-16T08:04:45;0.00;99.90
7002;DHT22;3541;53.230;10.518;2024-01-16T08:07:12;0.00;99.90
7002;DHT22;3541;53.230;10.518;2024-01-16T08:09:39;0.10;99.90
7002;DHT22;3541;53.230;10.518;2024-01-16T08:12:07;0.10;99.90
7002;DHT22;3541;53.230;10.518;2024-01-16T08:14:33;0.20;99.90
7002;DHT22;3541;53.230;10.518;2024-01-16T08:17:00;0.20;99.90
7002;DHT22;3541;53.230;10.518;2024-01-16T08:19:26;0.10;99.90
7002;DHT22;3541;53.230;10.518;2024-01-16T08:21:53;0.10;99.90
7002;DHT22;3541;53.230;10.518;2024-01-16T08:24:21;0.10;99.90
7002;DHT22;3541;53.230;10.518;2024-01-16T08:26:48;0.10;99.90
7002;DHT22;3541;53.230;10.518;2024-01-16T08:29:15;0.10;99.90
7002;DHT22;3541;53.230;10.518;2024-01-16T08:31:41;0.10;99.90
7002;DHT22;3541;53.230;10.518;2024-01-16T08:34:08;0.10;99.90
7002;DHT22;3541;53.230;10.518;2024-01-16T08:36:34;0.20;99.90
7002;DHT22;3541;53.230;10.518;2024-01-16T08:39:01;0.20;99.90
7002;DHT22;3541;53.230;10.518;2024-01-16T08:41:29;0.10;99.90
7002;DHT22;3541;53.230;10.518;2024-01-16T08:43:56;0.20;99.90
7002;DHT22;3541;53.230;10.518;2024-01-16T08:46:22;0.10;99.90
7002;DHT22;3541;53.230;10.518;2024-01-16T08:48:49;0.20;99.90
7002;DHT22;3541;53.230;10.518;2024-01-16T08:51:16;0.20;99.90
7002;DHT22;3541;53.230;10.518;2024-01-16T08:53:42;0.20;99.90
7002;DHT22;3541;53.230;10.518;2024-01-16T08:56:09;0.20;99.90
7002;DHT22;3541;53.230;10.518;2024-01-16T08:58:38;0.20;99.90
7002;DHT22;3541;53.230;10.518;2024-01-16T09:01:05;0.20;99.90
7002;DHT22;3541;53.230;10.518;2024-01-16T09:03:32;0.20;99.90
7002;DHT22;3541;53.230;10.518;2024-01-16T09:05:59;0.20;99.90
7002;DHT22;3541;53.230;10.518;2024-01-16T09:08:26;0.30;99.90
7002;DHT22;3541;53.230;10.518;2024-01-16T09:10:53;0.40;99.90
7002;DHT22;3541;53.230;10.518;2024-01-16T09:13:20;0.30;99.90
7002;DHT22;3541;53.230;10.518;2024-01-16T09:15:48;0.30;99.90
7002;DHT22;3541;53.230;10.518;2024-01-16T09:18:15;0.30;99.90
7002;DHT22;3541;53.230;10.518;2024-01-16T09:20:42;0.40;99.90
7002;DHT22;3541;53.230;10.518;2024-01-16T09:23:08;0.40;99.90
7002;DHT22;3541;53.230;10.518;2024-01-16T09:25:35;0.30;99.90
7002;DHT22;3541;53.230;10.518;2024-01-16T09:28:02;0.30;99.90
7002;DHT22;3541;53.230;10.518;2024-01-16T09:30:29;0.30;99.90
7002;DHT22;3541;53.230;10.518;2024-01-16T09:32:57;0.40;99.90
7002;DHT22;3541;53.230;10.518;2024-01-16T09:35:23;0.40;99.90
7002;DHT22;3541;53.230;10.518;2024-01-16T09:37:50;0.40;99.90
7002;DHT22;3541;53.230;10.518;2024-01-16T09:40:17;0.30;99.90
7002;DHT22;3541;53.230;10.518;2024-01-16T09:42:43;0.40;99.90
7002;DHT22;3541;53.230;10.518;2024-01-16T09:45:11;0.40;99.90
7002;DHT22;3541;53.230;10.518;2024-01-16T09:47:40;0.40;99.90
7002;DHT22;3541;53.230;10.518;2024-01-16T09:50:09;0.40;99.90
7002;DHT22;3541;53.230;10.518;2024-01-16T09:52:36;0.40;99.90
7002;DHT22;3541;53.230;10.518;2024-01-16T09:55:05;0.40;99.90
7002;DHT22;3541;53.230;10.518;2024-01-16T09:57:32;0.40;99.90
7002;DHT22;3541;53.230;10.518;2024-01-16T10:00:00;0.40;99.90
7002;DHT22;3541;53.230;10.518;2024-01-16T10:02:28;0.40;99.90
7002;DHT22;3541;53.230;10.518;2024-01-16T10:04:55;0.50;99.90
7002;DHT22;3541;53.230;10.518;2024-01-16T10:07:25;0.40;99.90
7002;DHT22;3541;53.230;10.518;2024-01-16T10:09:56;0.50;99.90
7002;DHT22;3541;53.230;10.518;2024-01-16T10:12:23;0.50;99.90
7002;DHT22;3541;53.230;10.518;2024-01-16T10:14:50;0.60;99.90
7002;DHT22;3541;53.230;10.518;2024-01-16T10:17:17;0.50;99.90
7002;DHT22;3541;53.230;10.518;2024-01-16T10:19:48;0.60;99.90
7002;DHT22;3541;53.230;10.518;2024-01-16T10:22:20;0.60;99.90
7002;DHT22;3541;53.230;10.518;2024-01-16T10:24:48;0.60;99.90
7002;DHT22;3541;53.230;10.518;2024-01-16T10:27:16;0.60;99.90
7002;DHT22;3541;53.230;10.518;2024-01-16T10:29:54;0.60;99.90
7002;DHT22;3541;53.230;10.518;2024-01-16T10:32:27;0.70;99.90
7002;DHT22;3541;53.230;10.518;2024-01-16T10:35:04;0.70;99.90
7002;DHT22;3541;53.230;10.518;2024-01-16T10:37:40;0.70;99.90
7002;DHT22;3541;53.230;10.518;2024-01-16T10:40:10;0.80;99.90
7002;DHT22;3541;53.230;10.518;2024-01-16T10:42:37;0.80;99.90
7002;DHT22;3541;53.230;10.518;2024-01-16T10:45:05;0.80;99.90
7002;DHT22;3541;53.230;10.518;2024-01-16T10:47:32;0.80;99.90
7002;DHT22;3541;53.230;10.518;2024-01-16T10:50:03;0.90;99.90
7002;DHT22;3541;53.230;10.518;2024-01-16T10:52:31;0.90;99.90
7002;DHT22;3541;53.230;10.518;2024-01-16T10:55:00;0.80;99.90
7002;DHT22;3541;53.230;10.518;2024-01-16T10:57:32;0.80;99.90
7002;DHT22;3541;53.230;10.518;2024-01-16T11:00:03;0.80;99.90
7002;DHT22;3541;53.230;10.518;2024-01-16T11:02:38;0.80;99.90
7002;DHT22;3541;53.230;10.518;2024-01-16T11:05:05;0.90;99.90
7002;DHT22;3541;53.230;10.518;2024-01-16T11:07:34;1.10;99.90
7002;DHT22;3541;53.230;10.518;2024-01-16T11:10:02;1.10;99.90
7002;DHT22;3541;53.230;10.518;2024-01-16T11:12:29;1.10;99.90
7002;DHT22;3541;53.230;10.518;2024-01-16T11:14:59;1.10;99.90
7002;DHT22;3541;53.230;10.518;2024-01-16T11:17:26;1.20;99.90
7002;DHT22;3541;53.230;10.518;2024-01-16T11:19:53;1.20;99.90
7002;DHT22;3541;53.230;10.518;2024-01-16T11:22:21;1.10;99.90
7002;DHT22;3541;53.230;10.518;2024-01-16T11:25:07;1.00;99.90
7002;DHT22;3541;53.230;10.518;2024-01-16T11:27:34;1.00;99.90
7002;DHT22;3541;53.230;10.518;2024-01-16T11:30:03;1.00;99.90
7002;DHT22;3541;53.230;10.518;2024-01-16T11:32:34;1.10;99.90
7002;DHT22;3541;53.230;10.518;2024-01-16T11:35:02;1.10;99.90
7002;DHT22;3541;53.230;10.518;2024-01-16T11:37:30;1.10;99.90
7002;DHT22;3541;53.230;10.518;2024-01-16T11:40:20;1.00;99.90
7002;DHT22;3541;53.230;10.518;2024-01-16T11:42:47;1.00;99.90
7002;DHT22;3541;53.230;10.518;2024-01-16T11:45:49;1.00;99.90
7002;DHT22;3541;53.230;10.518;2024-01-16T11:48:19;1.00;99.90
7002;DHT22;3541;53.230;10.518;2024-01-16T11:50:46;1.00;99.90
7002;DHT22;3541;53.230;10.518;2024-01-16T11:53:31;1.10;99.90
7002;DHT22;3541;53.230;10.518;2024-01-16T11:56:12;1.00;99.90
7002;DHT22;3541;53.230;10.518;2024-01-16T11:58:48;1.00;99.90
7002;DHT22;3541;53.230;10.518;2024-01-16T12:01:17;1.10;99.90
7002;DHT22;3541;53.230;10.518;2024-01-16T12:03:46;1.00;99.90
7002;DHT22;3541;53.230;10.518;2024-01-16T12:06:16;1.10;99.90
7002;DHT22;3541;53.230;10.518;2024-01-16T12:08:42;1.10;99.90
7002;DHT22;3541;53.230;10.518;2024-01-16T12:11:09;1.00;99.90
7002;DHT22;3541;53.230;10.518;2024-01-16T12:13:36;1.00;99.90
7002;DHT22;3541;53.230;10.518;2024-01-16T12:16:03;1.00;99.90
7002;DHT22;3541;53.230;10.518;2024-01-16T12:18:31;1.00;99.90
7002;DHT22;3541;53.230;10.518;2024-01-16T12:21:08;1.00;99.90
7002;DHT22;3541;53.230;10.518;2024-01-16T12:23:35;1.00;99.90
7002;DHT22;3541;53.230;10.518;2024-01-16T12:26:01;1.00;99.90
7002;DHT22;3541;53.230;10.518;2024-01-16T12:28:29;0.90;99.90
7002;DHT22;3541;53.230;10.518;2024-01-16T12:30:56;0.90;99.90
7002;DHT22;3541;53.230;10.518;2024-01-16T12:33:23;1.00;99.90
7002;DHT22;3541;53.230;10.518;2024-01-16T12:36:00;0.90;99.90
7002;DHT22;3541;53.230;10.518;2024-01-16T12:38:27;0.90;99.90
7002;DHT22;3541;53.230;10.518;2024-01-16T12:40:54;1.00;99.90
7002;DHT22;3541;53.230;10.518;2024-01-16T12:43:20;1.00;99.90
7002;DHT22;3541;53.230;10.518;2024-01-16T12:45:54;1.00;99.90
7002;DHT22;3541;53.230;10.518;2024-01-16T12:48:22;1.00;99.90
7002;DHT22;3541;53.230;10.518;2024-01-16T12:50:51;1.10;99.90
7002;DHT22;3541;53.230;10.518;2024-01-16T12:53:21;1.10;99.90
7002;DHT22;3541;53.230;10.518;2024-01-16T12:55:57;1.10;99.90
7002;DHT22;3541;53.230;10.518;2024-01-16T12:58:24;1.00;99.90
7002;DHT22;3541;53.230;10.518;2024-01-16T13:00:53;1.00;99.90
7002;DHT22;3541;53.230;10.518;2024-01-16T13:03:22;1.00;99.90
7002;DHT22;3541;53.230;10.518;2024-01-16T13:05:56;1.00;99.90
7002;DHT22;3541;53.230;10.518;2024-01-16T13:08:24;1.00;99.90
7002;DHT22;3541;53.230;10.518;2024-01-16T13:11:02;1.00;99.90
7002;DHT22;3541;53.230;10.518;2024-01-16T13:13:28;1.10;99.90
7002;DHT22;3541;53.230;10.518;2024-01-16T13:15:56;1.00;99.90
7002;DHT22;3541;53.230;10.518;2024-01-16T13:18:25;1.00;99.90
7002;DHT22;3541;53.230;10.518;2024-01-16T13:20:54;1.00;99.90
7002;DHT22;3541;53.230;10.518;2024-01-16T13:23:23;1.00;99.90
7002;DHT22;3541;53.230;10.518;2024-01-16T13:25:51;1.00;99.90
7002;DHT22;3541;53.230;10.518;2024-01-16T13:28:19;1.00;99.90
7002;DHT22;3541;53.230;10.518;2024-01-16T13:30:47;1.00;99.90
7002;DHT22;3541;53.230;10.518;2024-01-16T13:33:14;1.00;99.90
7002;DHT22;3541;53.230;10.518;2024-01-16T13:35:43;1.00;99.90
7002;DHT22;3541;53.230;10.518;2024-01-16T13:38:11;1.00;99.90
7002;DHT22;3541;53.230;10.518;2024-01-16T13:40:39;1.00;99.90
7002;DHT22;3541;53.230;10.518;2024-01-16T13:43:06;1.00;99.90
7002;DHT22;3541;53.230;10.518;2024-01-16T13:45:33;1.00;99.90
7002;DHT22;3541;53.230;10.518;2024-01-16T13:48:00;1.00;99.90
7002;DHT22;3541;53.230;10.518;2024-01-16T13:50:27;1.00;99.90
7002;DHT22;3541;53.230;10.518;2024-01-16T13:52:55;1.00;99.90
7002;DHT22;3541;53.230;10.518;2024-01-16T13:55:21;0.90;99.90
7002;DHT22;3541;53.230;10.518;2024-01-16T13:57:49;0.90;99.90
7002;DHT22;3541;53.230;10.518;2024-01-16T14:00:16;1.00;99.90
7002;DHT22;3541;53.230;10.518;2024-01-16T14:02:44;0.90;99.90
7002;DHT22;3541;53.230;10.518;2024-01-16T14:05:12;1.00;99.90
7002;DHT22;3541;53.230;10.518;2024-01-16T14:07:40;1.00;99.90
7002;DHT22;3541;53.230;10.518;2024-01-16T14:10:08;0.90;99.90
7002;DHT22;3541;53.230;10.518;2024-01-16T14:12:35;0.90;99.90
7002;DHT22;3541;53.230;10.518;2024-01-16T14:15:04;0.90;99.90
7002;DHT22;3541;53.230;10.518;2024-01-16T14:17:34;0.90;99.90
7002;DHT22;3541;53.230;10.518;2024-01-16T14:20:02;0.90;99.90
7002;DHT22;3541;53.230;10.518;2024-01-16T14:22:30;0.90;99.90
7002;DHT22;3541;53.230;10.518;2024-01-16T14:24:57;0.90;99.90
7002;DHT22;3541;53.230;10.518;2024-01-16T14:27:23;0.90;99.90
7002;DHT22;3541;53.230;10.518;2024-01-16T14:29:51;0.90;99.90
7002;DHT22;3541;53.230;10.518;2024-01-16T14:32:18;0.90;99.90
7002;DHT22;3541;53.230;10.518;2024-01-16T14:34:45;0.90;99.90
7002;DHT22;3541;53.230;10.518;2024-01-16T14:37:12;0.90;99.90
7002;DHT22;3541;53.230;10.518;2024-01-16T14:39:39;0.90;99.90
7002;DHT22;3541;53.230;10.518;2024-01-16T14:42:06;0.80;99.90
7002;DHT22;3541;53.230;10.518;2024-01-16T14:44:32;0.80;99.90
7002;DHT22;3541;53.230;10.518;2024-01-16T14:46:59;0.80;99.90
7002;DHT22;3541;53.230;10.518;2024-01-16T14:49:27;0.80;99.90
7002;DHT22;3541;53.230;10.518;2024-01-16T14:51:56;0.80;99.90
7002;DHT22;3541;53.230;10.518;2024-01-16T14:54:24;0.90;99.90
7002;DHT22;3541;53.230;10.518;2024-01-16T14:56:50;0.90;99.90
7002;DHT22;3541;53.230;10.518;2024-01-16T14:59:17;0.90;99.90
7002;DHT22;3541;53.230;10.518;2024-01-16T15:01:44;0.90;99.90
7002;DHT22;3541;53.230;10.518;2024-01-16T15:04:11;0.80;99.90
7002;DHT22;3541;53.230;10.518;2024-01-16T15:06:38;0.80;99.90
7002;DHT22;3541;53.230;10.518;2024-01-16T15:09:06;0.80;99.90
7002;DHT22;3541;53.230;10.518;2024-01-16T15:11:35;0.80;99.90
7002;DHT22;3541;53.230;10.518;2024-01-16T15:14:02;0.80;99.90
7002;DHT22;3541;53.230;10.518;2024-01-16T15:16:28;0.80;99.90
7002;DHT22;3541;53.230;10.518;2024-01-16T15:18:55;0.80;99.90
7002;DHT22;3541;53.230;10.518;2024-01-16T15:21:22;0.80;99.90
7002;DHT22;3541;53.230;10.518;2024-01-16T15:23:50;0.90;99.90
7002;DHT22;3541;53.230;10.518;2024-01-16T15:26:16;0.80;99.90
7002;DHT22;3541;53.230;10.518;2024-01-16T15:28:46;0.90;99.90
7002;DHT22;3541;53.230;10.518;2024-01-16T15:31:12;0.90;99.90
7002;DHT22;3541;53.230;10.518;2024-01-16T15:33:39;0.80;99.90
7002;DHT22;3541;53.230;10.518;2024-01-16T15:36:06;0.90;99.90
7002;DHT22;3541;53.230;10.518;2024-01-16T15:38:33;0.90;99.90
7002;DHT22;3541;53.230;10.518;2024-01-16T15:41:01;0.80;99.90
7002;DHT22;3541;53.230;10.518;2024-01-16T15:43:27;0.90;99.90
7002;DHT22;3541;53.230;10.518;2024-01-16T15:45:54;0.90;99.90
7002;DHT22;3541;53.230;10.518;2024-01-16T15:48:20;0.90;99.90
7002;DHT22;3541;53.230;10.518;2024-01-16T15:50:47;0.80;99.90
7002;DHT22;3541;53.230;10.518;2024-01-16T15:53:13;0.80;99.90
7002;DHT22;3541;53.230;10.518;2024-01-16T15:55:41;0.90;99.90
7002;DHT22;3541;53.230;10.518;2024-01-16T15:58:09;0.90;99.90
7002;DHT22;3541;53.230;10.518;2024-01-16T16:00:35;0.90;99.90
7002;DHT22;3541;53.230;10.518;2024-01-16T16:03:02;0.90;99.90